createdAt,value
2022-12-31T00:01:57.009Z,87.45
2022-12-31T00:04:33.607Z,87.46
2022-12-31T00:07:09.900Z,87.55
2022-12-31T00:09:46.453Z,87.57
2022-12-31T00:12:22.918Z,87.36
2022-12-31T00:14:59.288Z,87.39
2022-12-31T00:17:35.849Z,87.34
2022-12-31T00:20:14.213Z,87.15
2022-12-31T00:22:50.625Z,87.08
2022-12-31T00:25:27.192Z,87.09
2022-12-31T00:28:03.768Z,87.08
2022-12-31T00:30:43.750Z,87.03
2022-12-31T00:33:20.076Z,87.16
2022-12-31T00:35:56.337Z,87.03
2022-12-31T00:38:32.708Z,87.04
2022-12-31T00:41:10.029Z,87.02
2022-12-31T00:43:47.216Z,87.29
2022-12-31T00:46:25.158Z,87.41
2022-12-31T00:49:01.960Z,87.56
2022-12-31T00:51:38.228Z,87.60
2022-12-31T00:54:14.793Z,87.78
2022-12-31T00:56:51.173Z,87.96
2022-12-31T00:59:27.840Z,87.94
2022-12-31T01:02:04.408Z,87.84
2022-12-31T01:04:40.977Z,87.72
2022-12-31T01:07:17.260Z,87.81
2022-12-31T01:09:54.564Z,87.80
2022-12-31T01:12:31.878Z,87.71
2022-12-31T01:15:10.426Z,87.75
2022-12-31T01:17:46.716Z,87.77
2022-12-31T01:20:23.364Z,87.84
2022-12-31T01:22:59.748Z,88.07
2022-12-31T01:25:37.907Z,87.94
2022-12-31T01:28:14.403Z,88.13
2022-12-31T01:30:50.677Z,88.19
2022-12-31T01:33:27.484Z,88.17
2022-12-31T01:36:09.473Z,88.07
2022-12-31T01:38:46.503Z,87.96
2022-12-31T01:41:27.095Z,87.85
2022-12-31T01:44:20.000Z,87.73
2022-12-31T01:47:01.585Z,87.70
2022-12-31T01:49:45.825Z,87.70
2022-12-31T01:52:29.914Z,87.70
2022-12-31T01:55:19.259Z,87.62
2022-12-31T01:58:02.483Z,87.63
2022-12-31T02:00:39.700Z,87.62
2022-12-31T02:03:17.427Z,87.48
2022-12-31T02:06:04.169Z,87.61
2022-12-31T02:08:42.582Z,87.54
2022-12-31T02:11:36.604Z,87.63
2022-12-31T02:14:17.860Z,87.58
2022-12-31T02:17:09.022Z,87.51
2022-12-31T02:21:02.570Z,87.51
2022-12-31T02:24:33.681Z,87.50
2022-12-31T02:27:25.177Z,87.32
2022-12-31T02:30:20.633Z,87.40
2022-12-31T02:33:23.455Z,87.47
2022-12-31T02:36:06.714Z,87.42
2022-12-31T02:38:48.947Z,87.40
2022-12-31T02:41:43.969Z,87.46
2022-12-31T02:44:32.730Z,87.48
2022-12-31T02:47:29.801Z,87.47
2022-12-31T02:50:33.215Z,87.42
2022-12-31T02:53:31.763Z,87.42
2022-12-31T02:56:20.128Z,87.50
2022-12-31T02:59:34.728Z,87.60
2022-12-31T03:02:19.828Z,87.61
2022-12-31T03:05:02.112Z,87.61
2022-12-31T03:07:40.837Z,87.66
2022-12-31T03:10:17.116Z,87.64
2022-12-31T03:12:53.595Z,87.58
2022-12-31T03:15:33.247Z,87.58
2022-12-31T03:18:13.525Z,87.54
2022-12-31T03:21:11.243Z,87.50
2022-12-31T03:24:06.460Z,87.50
2022-12-31T03:26:42.900Z,87.51
2022-12-31T03:29:19.183Z,87.48
2022-12-31T03:31:55.856Z,87.48
2022-12-31T03:34:32.081Z,87.44
2022-12-31T03:37:08.480Z,87.43
2022-12-31T03:39:44.949Z,87.49
2022-12-31T03:42:21.217Z,87.54
2022-12-31T03:44:57.585Z,87.52
2022-12-31T03:47:33.947Z,87.46
2022-12-31T03:50:14.940Z,87.43
2022-12-31T03:52:51.326Z,87.40
2022-12-31T03:55:27.920Z,87.38
2022-12-31T03:58:04.588Z,87.31
2022-12-31T04:00:40.935Z,87.26
2022-12-31T04:03:17.332Z,87.24
2022-12-31T04:05:59.651Z,87.33
2022-12-31T04:08:36.039Z,87.20
2022-12-31T04:11:17.400Z,87.11
2022-12-31T04:13:56.819Z,87.19
2022-12-31T04:16:33.161Z,87.18
2022-12-31T04:19:09.471Z,87.20
2022-12-31T04:21:46.501Z,87.20
2022-12-31T04:24:23.034Z,87.24
2022-12-31T04:27:05.416Z,87.17
2022-12-31T04:29:43.995Z,87.19
2022-12-31T04:32:20.288Z,86.93
2022-12-31T04:34:57.100Z,86.93
2022-12-31T04:37:33.561Z,86.88
2022-12-31T04:40:12.796Z,86.83
2022-12-31T04:42:49.099Z,86.72
2022-12-31T04:45:25.510Z,86.69
2022-12-31T04:48:01.719Z,86.64
2022-12-31T04:50:38.031Z,86.59
2022-12-31T04:53:14.426Z,86.53
2022-12-31T04:55:51.739Z,86.39
2022-12-31T04:58:28.478Z,86.13
2022-12-31T05:01:05.427Z,86.18
2022-12-31T05:03:42.198Z,86.20
2022-12-31T05:06:22.808Z,86.21
2022-12-31T05:08:59.026Z,86.25
2022-12-31T05:11:35.852Z,86.48
2022-12-31T05:14:12.114Z,86.79
2022-12-31T05:16:49.082Z,86.96
2022-12-31T05:19:25.585Z,87.10
2022-12-31T05:22:19.603Z,87.09
2022-12-31T05:24:55.987Z,87.23
2022-12-31T05:27:33.370Z,87.40
2022-12-31T05:30:13.223Z,87.47
2022-12-31T05:32:49.897Z,87.44
2022-12-31T05:35:26.892Z,87.31
2022-12-31T05:38:04.101Z,87.17
2022-12-31T05:40:40.567Z,87.02
2022-12-31T05:43:17.198Z,86.93
2022-12-31T05:45:53.901Z,86.87
2022-12-31T05:48:30.460Z,86.83
2022-12-31T05:51:07.581Z,86.74
2022-12-31T05:53:43.897Z,86.74
2022-12-31T05:56:20.736Z,86.71
2022-12-31T05:58:57.034Z,86.66
2022-12-31T06:01:33.437Z,86.51
2022-12-31T06:04:10.187Z,86.50
2022-12-31T06:06:46.537Z,86.56
2022-12-31T06:09:23.621Z,86.52
2022-12-31T06:11:59.866Z,86.44
2022-12-31T06:14:40.787Z,86.41
2022-12-31T06:17:20.804Z,86.30
2022-12-31T06:19:57.024Z,86.25
2022-12-31T06:22:33.441Z,86.27
2022-12-31T06:25:12.266Z,86.27
2022-12-31T06:27:48.725Z,86.08
2022-12-31T06:30:24.996Z,86.41
2022-12-31T06:33:02.135Z,86.41
2022-12-31T06:35:38.753Z,86.33
2022-12-31T06:38:14.967Z,86.38
2022-12-31T06:40:51.219Z,86.28
2022-12-31T06:43:27.614Z,86.27
2022-12-31T06:46:08.081Z,86.23
2022-12-31T06:48:45.631Z,86.13
2022-12-31T06:51:24.415Z,86.02
2022-12-31T06:54:00.899Z,85.97
2022-12-31T06:56:39.409Z,85.92
2022-12-31T06:59:32.582Z,85.84
2022-12-31T07:03:19.596Z,85.87
2022-12-31T07:06:03.464Z,85.83
2022-12-31T07:08:55.745Z,85.96
2022-12-31T07:11:42.152Z,85.77
2022-12-31T07:14:36.774Z,85.76
2022-12-31T07:17:31.565Z,85.74
2022-12-31T07:20:15.537Z,85.70
2022-12-31T07:22:54.006Z,85.76
2022-12-31T07:25:32.704Z,85.75
2022-12-31T07:28:27.293Z,85.59
2022-12-31T07:31:17.990Z,85.60
2022-12-31T07:34:05.890Z,85.46
2022-12-31T07:37:09.032Z,85.41
2022-12-31T07:40:02.330Z,85.37
2022-12-31T07:43:00.853Z,85.39
2022-12-31T07:45:49.232Z,85.45
2022-12-31T07:48:34.368Z,85.13
2022-12-31T07:51:15.379Z,85.03
2022-12-31T07:53:51.670Z,84.90
2022-12-31T07:56:28.138Z,84.74
2022-12-31T07:59:30.310Z,84.55
2022-12-31T08:02:15.525Z,84.54
2022-12-31T08:05:04.272Z,84.65
2022-12-31T08:07:55.298Z,84.88
2022-12-31T08:10:44.808Z,84.82
2022-12-31T08:13:22.237Z,84.89
2022-12-31T08:16:00.507Z,85.04
2022-12-31T08:18:38.621Z,85.19
2022-12-31T08:21:35.161Z,85.12
2022-12-31T08:24:31.604Z,85.35
2022-12-31T08:27:18.980Z,85.22
2022-12-31T08:30:09.330Z,85.31
2022-12-31T08:32:59.859Z,85.22
2022-12-31T08:36:03.478Z,84.78
2022-12-31T08:38:52.941Z,84.27
2022-12-31T08:41:43.190Z,84.47
2022-12-31T08:44:34.673Z,84.60
2022-12-31T08:47:42.829Z,84.48
2022-12-31T08:50:23.641Z,84.08
2022-12-31T08:53:02.495Z,83.35
2022-12-31T08:55:41.180Z,82.94
2022-12-31T08:58:41.917Z,82.91
2022-12-31T09:01:25.667Z,82.48
2022-12-31T09:04:27.541Z,82.27
2022-12-31T09:07:09.535Z,81.73
2022-12-31T09:09:52.483Z,81.58
2022-12-31T09:12:37.109Z,81.61
2022-12-31T09:15:26.175Z,81.44
2022-12-31T09:18:04.563Z,80.73
2022-12-31T09:20:44.494Z,80.50
2022-12-31T09:23:22.942Z,80.71
2022-12-31T09:26:16.497Z,80.31
2022-12-31T09:29:05.451Z,80.05
2022-12-31T09:31:51.012Z,80.02
2022-12-31T09:34:37.630Z,79.94
2022-12-31T09:37:29.525Z,79.71
2022-12-31T09:40:37.407Z,79.75
2022-12-31T09:44:04.354Z,79.76
2022-12-31T09:47:36.050Z,79.35
2022-12-31T09:50:51.244Z,78.97
2022-12-31T09:54:21.176Z,78.70
2022-12-31T09:57:23.890Z,78.69
2022-12-31T10:00:12.538Z,78.60
2022-12-31T10:03:31.601Z,78.23
2022-12-31T10:06:27.017Z,77.96
2022-12-31T10:09:47.828Z,77.50
2022-12-31T10:13:14.413Z,76.75
2022-12-31T10:16:30.872Z,76.80
2022-12-31T10:19:57.121Z,76.14
2022-12-31T10:23:05.623Z,76.09
2022-12-31T10:26:24.815Z,75.79
2022-12-31T10:29:16.193Z,75.52
2022-12-31T10:32:14.296Z,75.13
2022-12-31T10:35:13.875Z,74.80
2022-12-31T10:38:04.571Z,74.43
2022-12-31T10:41:37.882Z,74.33
2022-12-31T10:45:16.120Z,73.92
2022-12-31T10:48:55.667Z,73.62
2022-12-31T10:52:09.958Z,72.94
2022-12-31T10:59:40.812Z,72.83
2022-12-31T11:03:09.663Z,72.45
2022-12-31T11:06:50.785Z,71.95
2022-12-31T11:10:13.221Z,71.79
2022-12-31T11:13:56.887Z,71.38
2022-12-31T11:17:15.322Z,71.23
2022-12-31T11:20:15.935Z,71.29
2022-12-31T11:23:13.914Z,71.14
2022-12-31T11:26:08.038Z,70.99
2022-12-31T11:29:10.636Z,70.90
2022-12-31T11:32:16.511Z,70.87
2022-12-31T11:35:58.299Z,70.68
2022-12-31T11:38:44.820Z,70.12
2022-12-31T11:41:36.537Z,70.08
2022-12-31T11:44:33.783Z,70.03
2022-12-31T11:48:28.689Z,70.30
2022-12-31T11:51:02.818Z,70.51
2022-12-31T11:54:28.199Z,70.77
2022-12-31T11:57:18.695Z,70.54
2022-12-31T12:00:00.803Z,70.58
2022-12-31T12:02:44.654Z,70.79
2022-12-31T12:05:26.064Z,70.86
2022-12-31T12:08:02.940Z,70.94
2022-12-31T12:10:46.443Z,70.92
2022-12-31T12:13:30.039Z,70.98
2022-12-31T12:16:11.359Z,71.02
2022-12-31T12:18:51.447Z,70.89
2022-12-31T12:21:30.257Z,71.12
2022-12-31T12:24:21.501Z,71.08
2022-12-31T12:26:59.024Z,71.19
2022-12-31T12:29:41.271Z,71.08
2022-12-31T12:32:25.996Z,71.18
2022-12-31T12:35:02.579Z,71.12
2022-12-31T12:37:39.657Z,71.18
2022-12-31T12:40:33.392Z,71.11
2022-12-31T12:43:26.664Z,71.01
2022-12-31T12:46:08.606Z,71.08
2022-12-31T12:48:46.053Z,71.07
2022-12-31T12:51:44.797Z,70.88
2022-12-31T12:54:43.027Z,71.07
2022-12-31T12:57:30.461Z,71.04
2022-12-31T13:00:20.088Z,71.04
2022-12-31T13:03:29.043Z,70.89
2022-12-31T13:06:37.028Z,71.03
2022-12-31T13:09:38.702Z,70.92
2022-12-31T13:12:48.904Z,70.66
2022-12-31T13:15:37.054Z,70.61
2022-12-31T13:18:35.615Z,70.71
2022-12-31T13:21:37.156Z,70.91
2022-12-31T13:24:32.790Z,70.75
2022-12-31T13:27:20.485Z,70.98
2022-12-31T13:30:00.439Z,71.08
2022-12-31T13:32:47.036Z,71.27
2022-12-31T13:35:32.463Z,71.38
2022-12-31T13:38:18.942Z,71.48
2022-12-31T13:41:05.335Z,71.57
2022-12-31T13:43:53.125Z,71.71
2022-12-31T13:46:46.144Z,71.85
2022-12-31T13:49:31.701Z,72.00
2022-12-31T13:52:28.613Z,72.10
2022-12-31T13:55:16.821Z,72.19
2022-12-31T13:57:59.433Z,72.35
2022-12-31T14:00:45.321Z,72.51
2022-12-31T14:03:35.872Z,72.66
2022-12-31T14:06:26.525Z,72.80
2022-12-31T14:09:03.884Z,72.98
2022-12-31T14:12:07.369Z,73.03
2022-12-31T14:15:00.889Z,73.15
2022-12-31T14:17:51.897Z,73.33
2022-12-31T14:20:42.844Z,73.40
2022-12-31T14:23:36.118Z,73.50
2022-12-31T14:26:20.880Z,73.56
2022-12-31T14:29:16.039Z,73.65
2022-12-31T14:32:26.162Z,73.69
2022-12-31T14:35:33.599Z,73.82
2022-12-31T14:38:32.211Z,73.88
2022-12-31T14:41:29.356Z,73.94
2022-12-31T14:44:26.553Z,74.04
2022-12-31T14:47:22.832Z,74.15
2022-12-31T14:50:13.851Z,74.27
2022-12-31T14:53:17.781Z,74.46
2022-12-31T14:56:04.300Z,74.71
2022-12-31T14:58:44.083Z,74.87
2022-12-31T15:01:27.309Z,74.99
2022-12-31T15:04:03.798Z,75.23
2022-12-31T15:07:06.646Z,75.36
2022-12-31T15:10:14.531Z,75.42
2022-12-31T15:13:08.892Z,75.50
2022-12-31T15:16:12.596Z,75.69
2022-12-31T15:19:38.979Z,75.79
2022-12-31T15:22:41.734Z,76.00
2022-12-31T15:25:40.293Z,76.05
2022-12-31T15:28:39.643Z,76.17
2022-12-31T15:31:23.506Z,76.32
2022-12-31T15:34:08.439Z,76.46
2022-12-31T15:36:58.430Z,76.51
2022-12-31T15:39:47.800Z,76.55
2022-12-31T15:42:50.699Z,76.67
2022-12-31T15:45:37.894Z,76.81
2022-12-31T15:48:24.005Z,77.04
2022-12-31T15:51:03.745Z,77.11
2022-12-31T15:53:52.332Z,77.24
2022-12-31T15:56:40.635Z,77.37
2022-12-31T15:59:21.875Z,77.50
2022-12-31T16:01:59.994Z,77.60
2022-12-31T16:04:41.316Z,77.60
2022-12-31T16:07:18.295Z,77.72
2022-12-31T16:09:59.164Z,77.80
2022-12-31T16:12:44.310Z,77.88
2022-12-31T16:15:29.332Z,77.94
2022-12-31T16:18:20.641Z,78.09
2022-12-31T16:20:59.403Z,78.16
2022-12-31T16:23:42.179Z,78.24
2022-12-31T16:26:19.202Z,78.36
2022-12-31T16:29:00.033Z,78.51
2022-12-31T16:31:36.411Z,78.65
2022-12-31T16:34:19.264Z,78.70
2022-12-31T16:37:05.844Z,78.64
2022-12-31T16:40:18.728Z,78.70
2022-12-31T16:42:55.124Z,78.85
2022-12-31T16:45:39.037Z,78.87
2022-12-31T16:48:22.456Z,78.97
2022-12-31T16:51:01.162Z,79.08
2022-12-31T16:53:41.895Z,79.07
2022-12-31T16:56:37.562Z,79.10
2022-12-31T16:59:24.282Z,79.16
2022-12-31T17:02:04.979Z,79.28
2022-12-31T17:04:48.062Z,79.31
2022-12-31T17:07:46.886Z,79.34
2022-12-31T17:10:35.003Z,79.41
2022-12-31T17:13:32.297Z,79.43
2022-12-31T17:16:09.713Z,79.48
2022-12-31T17:18:48.498Z,79.52
2022-12-31T17:21:30.245Z,79.60
2022-12-31T17:24:09.788Z,79.59
2022-12-31T17:26:46.211Z,79.64
2022-12-31T17:29:26.723Z,79.75
2022-12-31T17:32:28.196Z,79.89
2022-12-31T17:35:24.721Z,79.94
2022-12-31T17:38:37.387Z,80.02
2022-12-31T17:41:28.445Z,80.09
2022-12-31T17:44:05.555Z,80.13
2022-12-31T17:46:43.473Z,80.12
2022-12-31T17:49:21.985Z,80.22
2022-12-31T17:51:58.698Z,80.27
2022-12-31T17:54:35.022Z,80.19
2022-12-31T17:57:25.863Z,80.11
2022-12-31T18:00:04.888Z,80.01
2022-12-31T18:02:48.742Z,79.89
2022-12-31T18:05:27.217Z,79.80
2022-12-31T18:08:06.335Z,79.66
2022-12-31T18:10:45.952Z,79.51
2022-12-31T18:13:28.174Z,79.46
2022-12-31T18:16:04.512Z,79.29
2022-12-31T18:18:42.138Z,79.25
2022-12-31T18:21:32.717Z,79.04
2022-12-31T18:24:16.669Z,78.83
2022-12-31T18:26:55.567Z,78.69
2022-12-31T18:29:32.078Z,78.53
2022-12-31T18:32:11.944Z,78.51
2022-12-31T18:34:48.452Z,78.50
2022-12-31T18:37:25.593Z,78.50
2022-12-31T18:40:02.060Z,78.50
2022-12-31T18:42:38.439Z,78.46
2022-12-31T18:45:21.906Z,78.43
2022-12-31T18:47:58.164Z,78.44
2022-12-31T18:50:34.734Z,78.46
2022-12-31T18:53:17.505Z,78.50
2022-12-31T18:55:55.566Z,78.49
2022-12-31T18:58:31.895Z,78.50
2022-12-31T19:01:11.189Z,78.50
2022-12-31T19:03:47.787Z,78.50
2022-12-31T19:06:24.776Z,78.49
2022-12-31T19:09:01.398Z,78.51
2022-12-31T19:11:38.006Z,78.47
2022-12-31T19:14:24.291Z,78.54
2022-12-31T19:19:36.527Z,78.41
2022-12-31T19:22:16.629Z,77.95
2022-12-31T19:24:52.901Z,78.14
2022-12-31T19:27:29.307Z,78.10
2022-12-31T19:30:06.464Z,78.27
2022-12-31T19:32:42.829Z,78.69
2022-12-31T19:35:20.581Z,78.81
2022-12-31T19:37:59.873Z,78.88
2022-12-31T19:40:36.421Z,79.25
2022-12-31T19:43:17.657Z,79.67
2022-12-31T19:45:54.736Z,80.10
2022-12-31T19:48:33.082Z,80.25
2022-12-31T19:51:14.228Z,80.42
2022-12-31T19:53:51.924Z,80.45
2022-12-31T19:56:28.701Z,80.99
2022-12-31T19:59:10.866Z,80.86
2022-12-31T20:01:47.405Z,81.06
2022-12-31T20:22:24.815Z,82.00
2022-12-31T20:25:01.180Z,82.14
2022-12-31T20:27:38.629Z,82.37
2022-12-31T20:31:27.686Z,82.53
2022-12-31T20:34:04.474Z,82.54
2022-12-31T20:36:41.842Z,82.96
2022-12-31T20:39:18.229Z,83.04
2022-12-31T20:41:55.036Z,83.15
2022-12-31T20:44:31.285Z,83.19
2022-12-31T20:47:10.601Z,83.21
2022-12-31T20:50:10.529Z,83.29
2022-12-31T20:52:44.700Z,83.35
2022-12-31T20:55:21.571Z,83.42
2022-12-31T20:58:00.636Z,83.58
2022-12-31T21:00:37.107Z,83.68
2022-12-31T21:03:30.438Z,83.82
2022-12-31T21:06:11.290Z,84.01
2022-12-31T21:08:48.091Z,83.95
2022-12-31T21:11:42.521Z,83.92
2022-12-31T21:14:19.243Z,83.83
2022-12-31T21:16:55.709Z,83.81
2022-12-31T21:19:31.986Z,84.11
2022-12-31T21:22:08.343Z,84.10
2022-12-31T21:24:44.832Z,84.16
2022-12-31T21:27:21.206Z,84.15
2022-12-31T21:32:56.560Z,84.31
2022-12-31T21:35:47.076Z,84.23
2022-12-31T21:38:30.542Z,84.26
2022-12-31T21:41:33.526Z,84.26
2022-12-31T21:44:10.606Z,84.47
2022-12-31T21:47:16.091Z,84.45
2022-12-31T21:49:43.461Z,84.63
2022-12-31T21:52:30.739Z,84.65
2022-12-31T21:55:30.191Z,84.62
2022-12-31T22:01:21.447Z,84.95
2022-12-31T22:03:57.866Z,85.10
2022-12-31T22:06:37.154Z,85.08
2022-12-31T22:09:13.471Z,84.98
2022-12-31T22:11:50.036Z,84.91
2022-12-31T22:14:26.408Z,84.95
2022-12-31T22:17:02.674Z,84.99
2022-12-31T22:20:00.862Z,84.83
2022-12-31T22:22:35.654Z,84.73
2022-12-31T22:25:13.827Z,84.94
2022-12-31T22:28:27.646Z,85.02
2022-12-31T22:30:51.563Z,85.08
2022-12-31T22:33:28.140Z,85.29
2022-12-31T22:36:08.436Z,85.40
2022-12-31T22:38:45.207Z,85.35
2022-12-31T22:41:24.399Z,85.32
2022-12-31T22:44:04.959Z,85.18
2022-12-31T22:46:42.255Z,84.96
2022-12-31T22:49:20.240Z,84.91
2022-12-31T22:52:00.770Z,85.39
2022-12-31T22:54:39.420Z,85.62
2022-12-31T22:57:19.988Z,85.74
2022-12-31T22:59:56.876Z,85.56
2022-12-31T23:02:38.412Z,85.53
2022-12-31T23:05:18.587Z,85.66
2022-12-31T23:07:55.184Z,85.84
2022-12-31T23:11:00.472Z,86.09
2022-12-31T23:14:01.339Z,86.13
2022-12-31T23:16:55.018Z,85.99
2022-12-31T23:19:49.090Z,85.92
2022-12-31T23:22:42.825Z,85.85
2022-12-31T23:25:20.335Z,86.10
2022-12-31T23:27:57.099Z,86.18
2022-12-31T23:30:33.463Z,86.16
2022-12-31T23:33:14.595Z,85.92
2022-12-31T23:35:51.100Z,85.92
2022-12-31T23:38:27.437Z,86.06
2022-12-31T23:41:11.950Z,86.21
2022-12-31T23:43:48.599Z,86.21
2022-12-31T23:46:24.963Z,86.11
2022-12-31T23:49:01.302Z,86.11
2022-12-31T23:51:38.315Z,86.20
2022-12-31T23:54:15.958Z,86.11
2022-12-31T23:56:52.231Z,85.84
2022-12-31T23:59:29.243Z,85.71
